sensor_id;sensor_type;location;lat;lon;timestamp;P1;durP1;ratioP1;P2;durP2;ratioP2
23988;SDS011;12202;52.136;5.592;2023-03-23T00:00:53;16.63;;;10.38;;
23988;SDS011;12202;52.136;5.592;2023-03-23T00:03:19;18.50;;;10.10;;
23988;SDS011;12202;52.136;5.592;2023-03-23T00:05:46;18.50;;;9.90;;
23988;SDS011;12202;52.136;5.592;2023-03-23T00:08:18;15.18;;;9.00;;
23988;SDS011;12202;52.136;5.592;2023-03-23T00:10:49;24.17;;;10.70;;
23988;SDS011;12202;52.136;5.592;2023-03-23T00:13:33;20.45;;;9.80;;
23988;SDS011;12202;52.136;5.592;2023-03-23T00:15:59;16.48;;;8.43;;
23988;SDS011;12202;52.136;5.592;2023-03-23T00:18:25;19.00;;;9.13;;
23988;SDS011;12202;52.136;5.592;2023-03-23T00:20:55;17.60;;;9.05;;
23988;SDS011;12202;52.136;5.592;2023-03-23T00:23:22;18.33;;;9.20;;
23988;SDS011;12202;52.136;5.592;2023-03-23T00:25:50;16.75;;;8.65;;
23988;SDS011;12202;52.136;5.592;2023-03-23T00:28:18;16.60;;;8.73;;
23988;SDS011;12202;52.136;5.592;2023-03-23T00:30:53;17.02;;;8.60;;
23988;SDS011;12202;52.136;5.592;2023-03-23T00:33:21;15.55;;;7.95;;
23988;SDS011;12202;52.136;5.592;2023-03-23T00:35:47;17.02;;;7.90;;
23988;SDS011;12202;52.136;5.592;2023-03-23T00:38:13;26.08;;;9.38;;
23988;SDS011;12202;52.136;5.592;2023-03-23T00:40:39;26.33;;;8.57;;
23988;SDS011;12202;52.136;5.592;2023-03-23T00:43:05;17.88;;;8.05;;
23988;SDS011;12202;52.136;5.592;2023-03-23T00:45:33;15.95;;;7.50;;
23988;SDS011;12202;52.136;5.592;2023-03-23T00:48:01;18.70;;;8.45;;
23988;SDS011;12202;52.136;5.592;2023-03-23T00:50:29;23.20;;;8.25;;
23988;SDS011;12202;52.136;5.592;2023-03-23T00:52:55;15.07;;;7.35;;
23988;SDS011;12202;52.136;5.592;2023-03-23T00:55:21;18.02;;;7.65;;
23988;SDS011;12202;52.136;5.592;2023-03-23T00:57:47;17.30;;;7.32;;
23988;SDS011;12202;52.136;5.592;2023-03-23T01:00:15;16.02;;;7.15;;
23988;SDS011;12202;52.136;5.592;2023-03-23T01:02:41;13.02;;;6.60;;
23988;SDS011;12202;52.136;5.592;2023-03-23T01:05:09;12.20;;;7.32;;
23988;SDS011;12202;52.136;5.592;2023-03-23T01:07:35;12.40;;;6.85;;
23988;SDS011;12202;52.136;5.592;2023-03-23T01:10:02;10.13;;;6.72;;
23988;SDS011;12202;52.136;5.592;2023-03-23T01:12:28;12.10;;;6.88;;
23988;SDS011;12202;52.136;5.592;2023-03-23T01:14:54;11.48;;;6.45;;
23988;SDS011;12202;52.136;5.592;2023-03-23T01:17:20;16.02;;;6.75;;
23988;SDS011;12202;52.136;5.592;2023-03-23T01:19:46;17.70;;;7.47;;
23988;SDS011;12202;52.136;5.592;2023-03-23T01:22:13;14.00;;;6.68;;
23988;SDS011;12202;52.136;5.592;2023-03-23T01:24:39;14.00;;;6.38;;
23988;SDS011;12202;52.136;5.592;2023-03-23T01:27:05;18.08;;;6.88;;
23988;SDS011;12202;52.136;5.592;2023-03-23T01:29:34;11.73;;;5.78;;
23988;SDS011;12202;52.136;5.592;2023-03-23T01:32:01;10.82;;;5.40;;
23988;SDS011;12202;52.136;5.592;2023-03-23T01:34:27;8.70;;;6.10;;
23988;SDS011;12202;52.136;5.592;2023-03-23T01:36:53;13.50;;;6.20;;
23988;SDS011;12202;52.136;5.592;2023-03-23T01:39:20;11.82;;;5.82;;
23988;SDS011;12202;52.136;5.592;2023-03-23T01:41:46;14.07;;;6.00;;
23988;SDS011;12202;52.136;5.592;2023-03-23T01:46:44;10.32;;;5.85;;
23988;SDS011;12202;52.136;5.592;2023-03-23T01:49:15;10.80;;;5.95;;
23988;SDS011;12202;52.136;5.592;2023-03-23T01:51:43;14.40;;;6.30;;
23988;SDS011;12202;52.136;5.592;2023-03-23T01:54:12;12.45;;;5.88;;
23988;SDS011;12202;52.136;5.592;2023-03-23T01:56:44;11.73;;;6.43;;
23988;SDS011;12202;52.136;5.592;2023-03-23T01:59:10;9.50;;;6.47;;
23988;SDS011;12202;52.136;5.592;2023-03-23T02:01:37;14.52;;;6.63;;
23988;SDS011;12202;52.136;5.592;2023-03-23T02:04:07;16.40;;;6.75;;
23988;SDS011;12202;52.136;5.592;2023-03-23T02:06:34;13.65;;;6.25;;
23988;SDS011;12202;52.136;5.592;2023-03-23T02:09:00;15.15;;;6.53;;
23988;SDS011;12202;52.136;5.592;2023-03-23T02:11:27;12.13;;;6.82;;
23988;SDS011;12202;52.136;5.592;2023-03-23T02:13:53;11.55;;;6.65;;
23988;SDS011;12202;52.136;5.592;2023-03-23T02:19:21;12.13;;;7.20;;
23988;SDS011;12202;52.136;5.592;2023-03-23T02:24:34;15.02;;;7.03;;
23988;SDS011;12202;52.136;5.592;2023-03-23T02:27:17;11.52;;;7.18;;
23988;SDS011;12202;52.136;5.592;2023-03-23T02:34:44;11.55;;;6.93;;
23988;SDS011;12202;52.136;5.592;2023-03-23T02:37:14;12.73;;;7.93;;
23988;SDS011;12202;52.136;5.592;2023-03-23T02:39:44;12.35;;;7.40;;
23988;SDS011;12202;52.136;5.592;2023-03-23T02:42:12;12.93;;;6.90;;
23988;SDS011;12202;52.136;5.592;2023-03-23T02:44:40;16.40;;;8.02;;
23988;SDS011;12202;52.136;5.592;2023-03-23T02:47:21;17.23;;;8.20;;
23988;SDS011;12202;52.136;5.592;2023-03-23T02:49:48;16.95;;;7.65;;
23988;SDS011;12202;52.136;5.592;2023-03-23T02:52:17;13.48;;;7.90;;
23988;SDS011;12202;52.136;5.592;2023-03-23T02:54:44;14.02;;;7.95;;
23988;SDS011;12202;52.136;5.592;2023-03-23T02:57:11;16.35;;;8.35;;
23988;SDS011;12202;52.136;5.592;2023-03-23T02:59:38;15.18;;;8.10;;
23988;SDS011;12202;52.136;5.592;2023-03-23T03:02:23;13.88;;;8.45;;
23988;SDS011;12202;52.136;5.592;2023-03-23T03:04:53;14.52;;;8.55;;
23988;SDS011;12202;52.136;5.592;2023-03-23T03:07:28;14.57;;;9.07;;
23988;SDS011;12202;52.136;5.592;2023-03-23T03:09:59;18.13;;;8.80;;
23988;SDS011;12202;52.136;5.592;2023-03-23T03:15:12;18.45;;;9.85;;
23988;SDS011;12202;52.136;5.592;2023-03-23T03:17:53;15.32;;;8.52;;
23988;SDS011;12202;52.136;5.592;2023-03-23T03:20:21;15.70;;;7.75;;
23988;SDS011;12202;52.136;5.592;2023-03-23T03:22:47;18.08;;;7.97;;
23988;SDS011;12202;52.136;5.592;2023-03-23T03:25:14;16.83;;;7.88;;
23988;SDS011;12202;52.136;5.592;2023-03-23T03:27:41;14.98;;;8.43;;
23988;SDS011;12202;52.136;5.592;2023-03-23T03:30:10;13.60;;;7.28;;
23988;SDS011;12202;52.136;5.592;2023-03-23T03:32:44;17.25;;;7.25;;
23988;SDS011;12202;52.136;5.592;2023-03-23T03:35:13;16.13;;;6.72;;
23988;SDS011;12202;52.136;5.592;2023-03-23T03:37:40;17.55;;;7.63;;
23988;SDS011;12202;52.136;5.592;2023-03-23T03:40:07;15.13;;;6.60;;
23988;SDS011;12202;52.136;5.592;2023-03-23T03:42:40;13.90;;;6.68;;
23988;SDS011;12202;52.136;5.592;2023-03-23T03:45:07;11.68;;;6.95;;
23988;SDS011;12202;52.136;5.592;2023-03-23T03:47:34;17.45;;;6.63;;
23988;SDS011;12202;52.136;5.592;2023-03-23T03:50:00;19.55;;;6.88;;
23988;SDS011;12202;52.136;5.592;2023-03-23T03:52:26;15.82;;;6.18;;
23988;SDS011;12202;52.136;5.592;2023-03-23T03:54:52;17.77;;;6.28;;
23988;SDS011;12202;52.136;5.592;2023-03-23T03:57:18;13.75;;;6.88;;
23988;SDS011;12202;52.136;5.592;2023-03-23T03:59:44;13.82;;;6.75;;
23988;SDS011;12202;52.136;5.592;2023-03-23T04:02:10;12.80;;;6.63;;
23988;SDS011;12202;52.136;5.592;2023-03-23T04:04:39;13.75;;;7.53;;
23988;SDS011;12202;52.136;5.592;2023-03-23T04:07:06;11.60;;;6.90;;
23988;SDS011;12202;52.136;5.592;2023-03-23T04:09:39;11.63;;;6.50;;
23988;SDS011;12202;52.136;5.592;2023-03-23T04:12:13;14.18;;;6.22;;
23988;SDS011;12202;52.136;5.592;2023-03-23T04:14:41;12.05;;;6.63;;
23988;SDS011;12202;52.136;5.592;2023-03-23T04:17:07;10.13;;;7.07;;
23988;SDS011;12202;52.136;5.592;2023-03-23T04:19:37;12.93;;;6.20;;
23988;SDS011;12202;52.136;5.592;2023-03-23T04:22:04;10.52;;;6.38;;
23988;SDS011;12202;52.136;5.592;2023-03-23T04:24:30;15.90;;;6.53;;
23988;SDS011;12202;52.136;5.592;2023-03-23T04:26:58;11.55;;;6.22;;
23988;SDS011;12202;52.136;5.592;2023-03-23T04:29:24;13.82;;;6.68;;
23988;SDS011;12202;52.136;5.592;2023-03-23T04:31:50;15.32;;;5.85;;
23988;SDS011;12202;52.136;5.592;2023-03-23T04:34:17;26.52;;;6.13;;
23988;SDS011;12202;52.136;5.592;2023-03-23T04:36:43;13.50;;;6.85;;
23988;SDS011;12202;52.136;5.592;2023-03-23T04:39:11;14.05;;;5.80;;
23988;SDS011;12202;52.136;5.592;2023-03-23T04:41:38;11.82;;;5.97;;
23988;SDS011;12202;52.136;5.592;2023-03-23T04:44:05;17.88;;;5.88;;
23988;SDS011;12202;52.136;5.592;2023-03-23T04:46:31;16.85;;;6.25;;
23988;SDS011;12202;52.136;5.592;2023-03-23T04:48:58;11.35;;;5.32;;
23988;SDS011;12202;52.136;5.592;2023-03-23T04:51:33;17.75;;;5.47;;
23988;SDS011;12202;52.136;5.592;2023-03-23T04:54:01;10.82;;;4.57;;
23988;SDS011;12202;52.136;5.592;2023-03-23T04:56:27;12.85;;;4.30;;
23988;SDS011;12202;52.136;5.592;2023-03-23T04:58:53;13.23;;;5.10;;
23988;SDS011;12202;52.136;5.592;2023-03-23T05:01:18;12.68;;;4.00;;
23988;SDS011;12202;52.136;5.592;2023-03-23T05:03:45;11.90;;;3.90;;
23988;SDS011;12202;52.136;5.592;2023-03-23T05:06:10;13.73;;;4.22;;
23988;SDS011;12202;52.136;5.592;2023-03-23T05:08:36;14.35;;;3.67;;
23988;SDS011;12202;52.136;5.592;2023-03-23T05:11:04;12.85;;;2.97;;
23988;SDS011;12202;52.136;5.592;2023-03-23T05:13:30;10.95;;;3.28;;
23988;SDS011;12202;52.136;5.592;2023-03-23T05:15:56;21.98;;;3.92;;
23988;SDS011;12202;52.136;5.592;2023-03-23T05:18:22;14.70;;;4.30;;
23988;SDS011;12202;52.136;5.592;2023-03-23T05:20:49;14.48;;;4.20;;
23988;SDS011;12202;52.136;5.592;2023-03-23T05:23:17;17.95;;;5.30;;
23988;SDS011;12202;52.136;5.592;2023-03-23T05:25:51;18.40;;;3.67;;
23988;SDS011;12202;52.136;5.592;2023-03-23T05:28:17;13.30;;;3.78;;
23988;SDS011;12202;52.136;5.592;2023-03-23T05:30:43;17.40;;;4.38;;
23988;SDS011;12202;52.136;5.592;2023-03-23T05:33:09;12.55;;;3.70;;
23988;SDS011;12202;52.136;5.592;2023-03-23T05:35:35;16.67;;;3.15;;
23988;SDS011;12202;52.136;5.592;2023-03-23T05:38:01;13.48;;;3.63;;
23988;SDS011;12202;52.136;5.592;2023-03-23T05:40:29;12.02;;;4.30;;
23988;SDS011;12202;52.136;5.592;2023-03-23T05:42:55;18.88;;;4.80;;
23988;SDS011;12202;52.136;5.592;2023-03-23T05:45:25;19.35;;;3.97;;
23988;SDS011;12202;52.136;5.592;2023-03-23T05:47:51;18.95;;;3.40;;
23988;SDS011;12202;52.136;5.592;2023-03-23T05:50:17;21.30;;;4.22;;
23988;SDS011;12202;52.136;5.592;2023-03-23T05:52:43;16.73;;;4.05;;
23988;SDS011;12202;52.136;5.592;2023-03-23T05:55:10;20.45;;;3.55;;
23988;SDS011;12202;52.136;5.592;2023-03-23T05:57:37;13.80;;;3.38;;
23988;SDS011;12202;52.136;5.592;2023-03-23T06:00:04;14.75;;;3.53;;
23988;SDS011;12202;52.136;5.592;2023-03-23T06:02:45;20.85;;;4.35;;
23988;SDS011;12202;52.136;5.592;2023-03-23T06:05:11;25.15;;;4.55;;
23988;SDS011;12202;52.136;5.592;2023-03-23T06:07:38;14.70;;;4.00;;
23988;SDS011;12202;52.136;5.592;2023-03-23T06:10:05;21.40;;;6.75;;
23988;SDS011;12202;52.136;5.592;2023-03-23T06:12:32;25.63;;;3.97;;
23988;SDS011;12202;52.136;5.592;2023-03-23T06:14:59;32.65;;;5.18;;
23988;SDS011;12202;52.136;5.592;2023-03-23T06:17:25;18.98;;;4.90;;
23988;SDS011;12202;52.136;5.592;2023-03-23T06:19:51;18.77;;;4.70;;
23988;SDS011;12202;52.136;5.592;2023-03-23T06:22:17;23.17;;;5.15;;
23988;SDS011;12202;52.136;5.592;2023-03-23T06:24:44;23.00;;;4.88;;
23988;SDS011;12202;52.136;5.592;2023-03-23T06:27:10;19.48;;;5.05;;
23988;SDS011;12202;52.136;5.592;2023-03-23T06:29:36;16.05;;;4.85;;
23988;SDS011;12202;52.136;5.592;2023-03-23T06:32:02;19.52;;;5.20;;
23988;SDS011;12202;52.136;5.592;2023-03-23T06:34:29;15.35;;;5.55;;
23988;SDS011;12202;52.136;5.592;2023-03-23T06:36:56;23.40;;;6.28;;
23988;SDS011;12202;52.136;5.592;2023-03-23T06:39:22;18.50;;;4.85;;
23988;SDS011;12202;52.136;5.592;2023-03-23T06:41:49;20.13;;;5.90;;
23988;SDS011;12202;52.136;5.592;2023-03-23T06:47:35;35.90;;;12.90;;
23988;SDS011;12202;52.136;5.592;2023-03-23T06:50:01;30.23;;;7.85;;
23988;SDS011;12202;52.136;5.592;2023-03-23T06:52:27;14.80;;;5.30;;
23988;SDS011;12202;52.136;5.592;2023-03-23T06:54:53;29.98;;;6.30;;
23988;SDS011;12202;52.136;5.592;2023-03-23T06:57:20;22.90;;;4.97;;
23988;SDS011;12202;52.136;5.592;2023-03-23T06:59:46;20.50;;;5.43;;
23988;SDS011;12202;52.136;5.592;2023-03-23T07:02:12;23.45;;;6.10;;
23988;SDS011;12202;52.136;5.592;2023-03-23T07:04:39;20.95;;;5.32;;
23988;SDS011;12202;52.136;5.592;2023-03-23T07:07:05;14.75;;;4.25;;
23988;SDS011;12202;52.136;5.592;2023-03-23T07:09:34;18.70;;;4.97;;
23988;SDS011;12202;52.136;5.592;2023-03-23T07:12:00;21.27;;;4.93;;
23988;SDS011;12202;52.136;5.592;2023-03-23T07:14:26;15.35;;;5.05;;
23988;SDS011;12202;52.136;5.592;2023-03-23T07:16:52;17.25;;;5.15;;
23988;SDS011;12202;52.136;5.592;2023-03-23T07:19:18;16.70;;;5.38;;
23988;SDS011;12202;52.136;5.592;2023-03-23T07:21:44;24.67;;;5.13;;
23988;SDS011;12202;52.136;5.592;2023-03-23T07:24:11;16.05;;;4.88;;
23988;SDS011;12202;52.136;5.592;2023-03-23T07:26:41;22.17;;;5.75;;
23988;SDS011;12202;52.136;5.592;2023-03-23T07:29:07;20.20;;;4.47;;
23988;SDS011;12202;52.136;5.592;2023-03-23T07:31:33;11.73;;;3.72;;
23988;SDS011;12202;52.136;5.592;2023-03-23T07:33:59;28.63;;;5.10;;
23988;SDS011;12202;52.136;5.592;2023-03-23T07:36:26;15.13;;;3.90;;
23988;SDS011;12202;52.136;5.592;2023-03-23T07:38:52;22.52;;;4.43;;
23988;SDS011;12202;52.136;5.592;2023-03-23T07:41:21;16.67;;;4.05;;
23988;SDS011;12202;52.136;5.592;2023-03-23T07:43:47;18.17;;;3.88;;
23988;SDS011;12202;52.136;5.592;2023-03-23T07:46:14;27.25;;;5.03;;
23988;SDS011;12202;52.136;5.592;2023-03-23T07:48:41;18.35;;;4.47;;
23988;SDS011;12202;52.136;5.592;2023-03-23T07:51:07;28.35;;;6.18;;
23988;SDS011;12202;52.136;5.592;2023-03-23T07:53:34;24.17;;;4.43;;
23988;SDS011;12202;52.136;5.592;2023-03-23T07:56:01;28.25;;;6.63;;
23988;SDS011;12202;52.136;5.592;2023-03-23T07:58:28;17.60;;;4.97;;
23988;SDS011;12202;52.136;5.592;2023-03-23T08:00:54;16.98;;;4.57;;
23988;SDS011;12202;52.136;5.592;2023-03-23T08:03:22;18.05;;;4.05;;
23988;SDS011;12202;52.136;5.592;2023-03-23T08:05:49;21.85;;;5.05;;
23988;SDS011;12202;52.136;5.592;2023-03-23T08:08:15;14.15;;;4.40;;
23988;SDS011;12202;52.136;5.592;2023-03-23T08:10:41;18.83;;;4.50;;
23988;SDS011;12202;52.136;5.592;2023-03-23T08:13:11;17.38;;;4.93;;
23988;SDS011;12202;52.136;5.592;2023-03-23T08:15:37;12.48;;;4.40;;
23988;SDS011;12202;52.136;5.592;2023-03-23T08:18:04;23.02;;;5.43;;
23988;SDS011;12202;52.136;5.592;2023-03-23T08:20:30;15.68;;;4.10;;
23988;SDS011;12202;52.136;5.592;2023-03-23T08:22:57;12.98;;;4.47;;
23988;SDS011;12202;52.136;5.592;2023-03-23T08:27:56;14.38;;;4.30;;
23988;SDS011;12202;52.136;5.592;2023-03-23T08:30:22;11.23;;;5.00;;
23988;SDS011;12202;52.136;5.592;2023-03-23T08:32:51;14.45;;;4.20;;
23988;SDS011;12202;52.136;5.592;2023-03-23T08:35:18;18.42;;;4.78;;
23988;SDS011;12202;52.136;5.592;2023-03-23T08:37:45;23.15;;;5.28;;
23988;SDS011;12202;52.136;5.592;2023-03-23T08:40:12;13.32;;;4.50;;
23988;SDS011;12202;52.136;5.592;2023-03-23T08:42:39;19.05;;;4.53;;
23988;SDS011;12202;52.136;5.592;2023-03-23T08:45:06;17.42;;;4.68;;
23988;SDS011;12202;52.136;5.592;2023-03-23T08:47:33;13.07;;;4.20;;
23988;SDS011;12202;52.136;5.592;2023-03-23T08:50:00;14.07;;;4.65;;
23988;SDS011;12202;52.136;5.592;2023-03-23T08:52:27;14.48;;;4.38;;
23988;SDS011;12202;52.136;5.592;2023-03-23T08:54:53;11.20;;;4.35;;
23988;SDS011;12202;52.136;5.592;2023-03-23T08:57:19;15.38;;;4.30;;
23988;SDS011;12202;52.136;5.592;2023-03-23T08:59:45;15.55;;;5.85;;
23988;SDS011;12202;52.136;5.592;2023-03-23T09:02:11;19.27;;;7.78;;
23988;SDS011;12202;52.136;5.592;2023-03-23T09:04:38;16.83;;;4.47;;
23988;SDS011;12202;52.136;5.592;2023-03-23T09:07:07;22.02;;;4.38;;
23988;SDS011;12202;52.136;5.592;2023-03-23T09:09:33;15.63;;;5.15;;
23988;SDS011;12202;52.136;5.592;2023-03-23T09:11:59;21.65;;;5.40;;
23988;SDS011;12202;52.136;5.592;2023-03-23T09:14:32;10.80;;;4.82;;
23988;SDS011;12202;52.136;5.592;2023-03-23T09:16:58;14.25;;;4.55;;
23988;SDS011;12202;52.136;5.592;2023-03-23T09:19:24;10.73;;;3.67;;
23988;SDS011;12202;52.136;5.592;2023-03-23T09:21:50;15.50;;;4.45;;
23988;SDS011;12202;52.136;5.592;2023-03-23T09:24:16;20.10;;;4.72;;
23988;SDS011;12202;52.136;5.592;2023-03-23T09:26:43;22.77;;;5.13;;
23988;SDS011;12202;52.136;5.592;2023-03-23T09:29:10;26.42;;;5.15;;
23988;SDS011;12202;52.136;5.592;2023-03-23T09:31:37;18.05;;;4.50;;
23988;SDS011;12202;52.136;5.592;2023-03-23T09:34:05;25.73;;;4.97;;
23988;SDS011;12202;52.136;5.592;2023-03-23T09:36:31;24.40;;;4.90;;
23988;SDS011;12202;52.136;5.592;2023-03-23T09:38:57;17.33;;;4.97;;
23988;SDS011;12202;52.136;5.592;2023-03-23T09:41:38;15.82;;;4.53;;
23988;SDS011;12202;52.136;5.592;2023-03-23T09:49:43;22.08;;;4.25;;
23988;SDS011;12202;52.136;5.592;2023-03-23T09:52:12;21.40;;;4.50;;
23988;SDS011;12202;52.136;5.592;2023-03-23T09:54:40;19.38;;;4.97;;
23988;SDS011;12202;52.136;5.592;2023-03-23T09:57:17;19.05;;;4.47;;
23988;SDS011;12202;52.136;5.592;2023-03-23T09:59:47;20.17;;;4.32;;
23988;SDS011;12202;52.136;5.592;2023-03-23T10:02:17;18.90;;;4.18;;
23988;SDS011;12202;52.136;5.592;2023-03-23T10:04:44;23.30;;;4.43;;
23988;SDS011;12202;52.136;5.592;2023-03-23T10:07:13;21.33;;;3.80;;
23988;SDS011;12202;52.136;5.592;2023-03-23T10:09:40;16.95;;;3.55;;
23988;SDS011;12202;52.136;5.592;2023-03-23T10:12:27;20.40;;;4.88;;
23988;SDS011;12202;52.136;5.592;2023-03-23T10:17:29;27.48;;;6.18;;
23988;SDS011;12202;52.136;5.592;2023-03-23T10:20:14;28.42;;;4.50;;
23988;SDS011;12202;52.136;5.592;2023-03-23T10:22:45;17.80;;;4.40;;
23988;SDS011;12202;52.136;5.592;2023-03-23T10:25:19;22.88;;;4.22;;
23988;SDS011;12202;52.136;5.592;2023-03-23T10:27:48;14.32;;;3.63;;
23988;SDS011;12202;52.136;5.592;2023-03-23T10:30:23;21.70;;;4.13;;
23988;SDS011;12202;52.136;5.592;2023-03-23T10:32:52;13.70;;;3.47;;
23988;SDS011;12202;52.136;5.592;2023-03-23T10:35:19;18.90;;;3.10;;
23988;SDS011;12202;52.136;5.592;2023-03-23T10:37:47;22.83;;;4.90;;
23988;SDS011;12202;52.136;5.592;2023-03-23T10:40:19;25.90;;;4.90;;
23988;SDS011;12202;52.136;5.592;2023-03-23T10:42:45;22.58;;;4.13;;
23988;SDS011;12202;52.136;5.592;2023-03-23T10:47:39;22.33;;;5.30;;
23988;SDS011;12202;52.136;5.592;2023-03-23T10:50:10;21.42;;;3.42;;
23988;SDS011;12202;52.136;5.592;2023-03-23T10:52:39;24.23;;;4.20;;
23988;SDS011;12202;52.136;5.592;2023-03-23T10:55:17;20.08;;;3.33;;
23988;SDS011;12202;52.136;5.592;2023-03-23T10:57:44;13.68;;;4.00;;
23988;SDS011;12202;52.136;5.592;2023-03-23T11:02:42;20.30;;;3.67;;
23988;SDS011;12202;52.136;5.592;2023-03-23T11:05:18;23.10;;;3.50;;
23988;SDS011;12202;52.136;5.592;2023-03-23T11:07:56;20.90;;;3.90;;
23988;SDS011;12202;52.136;5.592;2023-03-23T11:10:36;27.55;;;6.85;;
23988;SDS011;12202;52.136;5.592;2023-03-23T11:13:02;18.33;;;3.42;;
23988;SDS011;12202;52.136;5.592;2023-03-23T11:15:33;17.13;;;3.10;;
23988;SDS011;12202;52.136;5.592;2023-03-23T11:18:02;23.42;;;3.88;;
23988;SDS011;12202;52.136;5.592;2023-03-23T11:20:32;13.43;;;3.70;;
23988;SDS011;12202;52.136;5.592;2023-03-23T11:23:00;21.48;;;4.60;;
23988;SDS011;12202;52.136;5.592;2023-03-23T11:25:26;22.45;;;4.22;;
23988;SDS011;12202;52.136;5.592;2023-03-23T11:27:53;19.08;;;3.55;;
23988;SDS011;12202;52.136;5.592;2023-03-23T11:30:21;19.27;;;4.03;;
23988;SDS011;12202;52.136;5.592;2023-03-23T11:32:49;18.45;;;3.28;;
23988;SDS011;12202;52.136;5.592;2023-03-23T11:35:22;20.75;;;3.58;;
23988;SDS011;12202;52.136;5.592;2023-03-23T11:37:51;16.13;;;3.20;;
23988;SDS011;12202;52.136;5.592;2023-03-23T11:40:20;19.35;;;3.80;;
23988;SDS011;12202;52.136;5.592;2023-03-23T11:42:48;14.60;;;3.13;;
23988;SDS011;12202;52.136;5.592;2023-03-23T11:45:48;17.02;;;3.35;;
23988;SDS011;12202;52.136;5.592;2023-03-23T11:50:52;17.73;;;3.75;;
23988;SDS011;12202;52.136;5.592;2023-03-23T11:53:27;21.40;;;3.70;;
23988;SDS011;12202;52.136;5.592;2023-03-23T11:58:22;23.65;;;3.90;;
23988;SDS011;12202;52.136;5.592;2023-03-23T12:00:51;28.88;;;4.78;;
23988;SDS011;12202;52.136;5.592;2023-03-23T12:03:20;13.50;;;2.28;;
23988;SDS011;12202;52.136;5.592;2023-03-23T12:08:38;23.23;;;4.22;;
23988;SDS011;12202;52.136;5.592;2023-03-23T12:21:28;22.90;;;4.53;;
23988;SDS011;12202;52.136;5.592;2023-03-23T12:26:39;16.55;;;3.85;;
23988;SDS011;12202;52.136;5.592;2023-03-23T12:47:37;20.15;;;4.10;;
23988;SDS011;12202;52.136;5.592;2023-03-23T12:50:15;24.60;;;3.97;;
23988;SDS011;12202;52.136;5.592;2023-03-23T12:55:16;18.85;;;4.03;;
23988;SDS011;12202;52.136;5.592;2023-03-23T12:57:44;17.75;;;3.20;;
23988;SDS011;12202;52.136;5.592;2023-03-23T13:00:20;16.52;;;3.50;;
23988;SDS011;12202;52.136;5.592;2023-03-23T13:08:14;14.43;;;3.25;;
23988;SDS011;12202;52.136;5.592;2023-03-23T13:10:48;8.13;;;2.75;;
23988;SDS011;12202;52.136;5.592;2023-03-23T13:13:16;16.58;;;3.00;;
23988;SDS011;12202;52.136;5.592;2023-03-23T13:28:25;11.30;;;3.00;;
23988;SDS011;12202;52.136;5.592;2023-03-23T13:30:57;14.13;;;3.35;;
23988;SDS011;12202;52.136;5.592;2023-03-23T13:33:23;19.92;;;3.20;;
23988;SDS011;12202;52.136;5.592;2023-03-23T13:35:50;13.98;;;2.65;;
23988;SDS011;12202;52.136;5.592;2023-03-23T13:38:21;13.00;;;2.75;;
23988;SDS011;12202;52.136;5.592;2023-03-23T13:40:49;13.77;;;2.72;;
23988;SDS011;12202;52.136;5.592;2023-03-23T13:43:24;16.45;;;3.13;;
23988;SDS011;12202;52.136;5.592;2023-03-23T13:45:52;17.13;;;3.35;;
23988;SDS011;12202;52.136;5.592;2023-03-23T13:48:21;14.80;;;3.00;;
23988;SDS011;12202;52.136;5.592;2023-03-23T13:53:27;15.80;;;3.40;;
23988;SDS011;12202;52.136;5.592;2023-03-23T13:56:05;19.20;;;5.97;;
23988;SDS011;12202;52.136;5.592;2023-03-23T13:58:31;19.45;;;3.85;;
23988;SDS011;12202;52.136;5.592;2023-03-23T14:01:03;12.90;;;2.97;;
23988;SDS011;12202;52.136;5.592;2023-03-23T14:03:36;19.73;;;4.05;;
23988;SDS011;12202;52.136;5.592;2023-03-23T14:13:32;18.92;;;4.70;;
23988;SDS011;12202;52.136;5.592;2023-03-23T14:16:00;19.77;;;3.58;;
23988;SDS011;12202;52.136;5.592;2023-03-23T14:18:37;24.20;;;4.60;;
23988;SDS011;12202;52.136;5.592;2023-03-23T14:21:04;14.60;;;4.18;;
23988;SDS011;12202;52.136;5.592;2023-03-23T14:23:34;11.48;;;4.25;;
23988;SDS011;12202;52.136;5.592;2023-03-23T14:26:01;18.60;;;5.03;;
23988;SDS011;12202;52.136;5.592;2023-03-23T14:28:32;15.35;;;4.07;;
23988;SDS011;12202;52.136;5.592;2023-03-23T14:31:02;19.73;;;4.22;;
23988;SDS011;12202;52.136;5.592;2023-03-23T14:33:28;16.95;;;4.35;;
23988;SDS011;12202;52.136;5.592;2023-03-23T14:35:56;17.77;;;4.05;;
23988;SDS011;12202;52.136;5.592;2023-03-23T14:38:23;13.50;;;5.75;;
23988;SDS011;12202;52.136;5.592;2023-03-23T14:40:58;18.40;;;6.70;;
23988;SDS011;12202;52.136;5.592;2023-03-23T14:43:25;15.65;;;4.68;;
23988;SDS011;12202;52.136;5.592;2023-03-23T14:45:54;15.10;;;4.40;;
23988;SDS011;12202;52.136;5.592;2023-03-23T14:48:20;16.02;;;4.18;;
23988;SDS011;12202;52.136;5.592;2023-03-23T14:50:59;15.20;;;3.95;;
23988;SDS011;12202;52.136;5.592;2023-03-23T14:53:31;9.90;;;4.20;;
23988;SDS011;12202;52.136;5.592;2023-03-23T14:55:59;14.27;;;4.25;;
23988;SDS011;12202;52.136;5.592;2023-03-23T14:58:25;17.70;;;4.05;;
23988;SDS011;12202;52.136;5.592;2023-03-23T15:00:56;24.40;;;4.25;;
23988;SDS011;12202;52.136;5.592;2023-03-23T15:03:23;22.60;;;7.28;;
23988;SDS011;12202;52.136;5.592;2023-03-23T15:05:59;17.17;;;6.55;;
23988;SDS011;12202;52.136;5.592;2023-03-23T15:08:29;19.83;;;5.18;;
23988;SDS011;12202;52.136;5.592;2023-03-23T15:11:06;13.68;;;3.67;;
23988;SDS011;12202;52.136;5.592;2023-03-23T15:13:34;11.50;;;3.60;;
23988;SDS011;12202;52.136;5.592;2023-03-23T15:16:04;15.70;;;3.63;;
23988;SDS011;12202;52.136;5.592;2023-03-23T15:18:36;17.55;;;3.83;;
23988;SDS011;12202;52.136;5.592;2023-03-23T15:21:09;16.85;;;3.05;;
23988;SDS011;12202;52.136;5.592;2023-03-23T15:23:40;16.30;;;4.28;;
23988;SDS011;12202;52.136;5.592;2023-03-23T15:26:06;14.32;;;3.30;;
23988;SDS011;12202;52.136;5.592;2023-03-23T15:28:32;16.35;;;3.45;;
23988;SDS011;12202;52.136;5.592;2023-03-23T15:31:03;15.18;;;3.35;;
23988;SDS011;12202;52.136;5.592;2023-03-23T15:33:34;13.38;;;3.15;;
23988;SDS011;12202;52.136;5.592;2023-03-23T15:36:04;16.08;;;3.03;;
23988;SDS011;12202;52.136;5.592;2023-03-23T15:38:32;15.13;;;3.63;;
23988;SDS011;12202;52.136;5.592;2023-03-23T15:41:00;16.45;;;2.95;;
23988;SDS011;12202;52.136;5.592;2023-03-23T15:43:27;18.23;;;3.47;;
23988;SDS011;12202;52.136;5.592;2023-03-23T15:46:05;22.83;;;3.58;;
23988;SDS011;12202;52.136;5.592;2023-03-23T15:48:50;13.25;;;3.53;;
23988;SDS011;12202;52.136;5.592;2023-03-23T15:51:17;25.05;;;3.85;;
23988;SDS011;12202;52.136;5.592;2023-03-23T15:53:43;17.38;;;3.17;;
23988;SDS011;12202;52.136;5.592;2023-03-23T15:56:12;13.35;;;3.50;;
23988;SDS011;12202;52.136;5.592;2023-03-23T15:58:38;16.27;;;3.80;;
23988;SDS011;12202;52.136;5.592;2023-03-23T16:01:06;20.58;;;3.63;;
23988;SDS011;12202;52.136;5.592;2023-03-23T16:06:14;19.33;;;4.28;;
23988;SDS011;12202;52.136;5.592;2023-03-23T16:08:41;71.93;;;7.32;;
23988;SDS011;12202;52.136;5.592;2023-03-23T16:11:11;16.30;;;3.58;;
23988;SDS011;12202;52.136;5.592;2023-03-23T16:13:37;14.93;;;3.58;;
23988;SDS011;12202;52.136;5.592;2023-03-23T16:16:04;15.38;;;3.58;;
23988;SDS011;12202;52.136;5.592;2023-03-23T16:18:32;19.58;;;3.90;;
23988;SDS011;12202;52.136;5.592;2023-03-23T16:20:58;14.70;;;3.90;;
23988;SDS011;12202;52.136;5.592;2023-03-23T16:23:25;17.67;;;3.90;;
23988;SDS011;12202;52.136;5.592;2023-03-23T16:25:51;15.43;;;3.63;;
23988;SDS011;12202;52.136;5.592;2023-03-23T16:28:17;17.98;;;4.68;;